< < Back
Terminal Aerodrome Forecast


Current Version              Previous Versions:   1  2  3  4  5  6  7  8  9  

Terminal Aerodrome Forecast

951
FTUS42 KFFC 230500
TAFMCN
TAF
KMCN 230522Z 2306/2406 28004KT 1/4SM FG BKN003
     FM231200 32006KT 1/2SM FG FEW003
     FM231400 33007KT P6SM FEW012
     FM240000 32005KT P6SM SKC=

Latest METAR

883
SAUS80 KWBC 230700
MTRMCN
METAR KMCN 230653Z AUTO 27004KT 1/4SM FG VV002 13/13 A2985 RMK AO2
SLP104 T01330133 TSNO


USA.gov is the U.S. government's official web portal to all federal, state and local government web resources and services.